Time;durP1;ratioP1;P1;durP2;ratioP2;P2;SDS_P1;SDS_P2;PMS_P1;PMS_P2;Temp;Humidity;BMP_temperature;BMP_pressure;BME280_temperature;BME280_humidity;BME280_pressure;Samples;Min_cycle;Max_cycle;Signal;HPM_P1;HPM_P2
2022/12/28 00:01:17;;;;;;;10.83;6.87;;;;;;;-141.28;100.00;49144.91;5071334;28;20440;-78
2022/12/28 00:03:45;;;;;;;11.57;6.77;;;;;;;-141.28;100.00;49154.72;5074049;28;20447;-75
2022/12/28 00:06:12;;;;;;;10.03;7.00;;;;;;;-141.28;100.00;49152.75;5077712;28;20487;-76
2022/12/28 00:08:39;;;;;;;9.40;6.53;;;;;;;-141.28;100.00;49156.66;5077292;28;20440;-78
2022/12/28 00:11:08;;;;;;;11.63;7.77;;;;;;;-141.28;100.00;49156.66;5079512;28;20443;-76
2022/12/28 00:13:37;;;;;;;9.53;7.37;;;;;;;-141.28;100.00;49160.59;5094263;28;20434;-75
2022/12/28 00:16:09;;;;;;;10.10;7.27;;;;;;;-141.28;100.00;49180.22;5075552;28;20937;-77
2022/12/28 00:18:38;;;;;;;10.23;7.30;;;;;;;-141.28;100.00;49164.53;5066925;28;20504;-79
2022/12/28 00:21:05;;;;;;;13.47;6.80;;;;;;;-141.28;100.00;49166.47;5055604;28;20440;-75
2022/12/28 00:23:32;;;;;;;9.90;7.33;;;;;;;-141.28;100.00;49152.75;5057449;28;20988;-76
2022/12/28 00:26:07;;;;;;;10.73;7.07;;;;;;;-141.28;100.00;49193.94;5050876;28;20525;-79
2022/12/28 00:28:37;;;;;;;11.13;6.97;;;;;;;-141.28;100.00;49199.84;5072967;28;20868;-79
2022/12/28 00:31:04;;;;;;;13.53;7.37;;;;;;;-141.28;100.00;49188.06;5073192;28;20442;-76
2022/12/28 00:33:32;;;;;;;10.83;7.47;;;;;;;-141.28;100.00;49182.19;5072486;28;20479;-76
2022/12/28 00:36:01;;;;;;;11.50;7.80;;;;;;;-141.28;100.00;49192.00;5063931;28;20447;-79
2022/12/28 00:38:30;;;;;;;9.97;7.50;;;;;;;-141.28;100.00;49190.03;5069550;28;20453;-76
2022/12/28 00:40:57;;;;;;;11.30;7.80;;;;;;;-141.28;100.00;49207.69;5073159;28;21011;-79
2022/12/28 00:43:25;;;;;;;10.90;7.83;;;;;;;-141.28;100.00;49192.00;5043132;28;20443;-79
2022/12/28 00:45:53;;;;;;;11.13;7.20;;;;;;;-141.28;100.00;49203.75;5053523;28;20475;-77
2022/12/28 00:48:20;;;;;;;9.83;7.27;;;;;;;-141.28;100.00;49211.59;5053716;28;20518;-76
2022/12/28 00:50:48;;;;;;;12.87;8.00;;;;;;;-141.28;100.00;49227.31;5053377;28;20438;-78
2022/12/28 00:53:17;;;;;;;13.50;7.13;;;;;;;-141.28;100.00;49209.66;5053529;28;20493;-76
2022/12/28 00:55:44;;;;;;;11.30;7.30;;;;;;;-141.28;100.00;49223.38;5053700;28;20443;-76
2022/12/28 00:58:12;;;;;;;12.70;8.00;;;;;;;-141.28;100.00;49219.47;5053467;28;20439;-80
2022/12/28 01:00:39;;;;;;;18.10;11.33;;;;;;;-141.28;100.00;49235.16;5053342;28;20444;-80
2022/12/28 01:03:07;;;;;;;21.47;13.27;;;;;;;-141.28;100.00;49250.84;5059614;28;20446;-76
2022/12/28 01:05:34;;;;;;;27.03;15.10;;;;;;;-141.28;100.00;49294.03;5072791;28;20565;-75
2022/12/28 01:08:02;;;;;;;24.43;15.40;;;;;;;-141.28;100.00;49305.78;5052844;28;20484;-76
2022/12/28 01:10:29;;;;;;;22.57;14.13;;;;;;;-141.28;100.00;49323.44;5052453;28;20561;-75
2022/12/28 01:12:56;;;;;;;22.57;13.30;;;;;;;-141.28;100.00;49313.66;5060053;28;20446;-76
2022/12/28 01:15:24;;;;;;;17.73;11.33;;;;;;;-141.28;100.00;49303.84;5072236;28;20458;-75
2022/12/28 01:17:51;;;;;;;18.27;11.10;;;;;;;-141.28;100.00;49282.25;5065131;28;20817;-74
2022/12/28 01:20:20;;;;;;;16.10;10.40;;;;;;;-141.28;100.00;49284.22;5053290;28;20436;-77
2022/12/28 01:22:49;;;;;;;15.07;9.37;;;;;;;-141.28;100.00;49266.56;5052758;28;20501;-76
2022/12/28 01:25:17;;;;;;;16.87;10.00;;;;;;;-141.28;100.00;49286.16;5043037;28;21072;-74
2022/12/28 01:27:45;;;;;;;15.97;9.03;;;;;;;-141.28;100.00;49278.31;5072544;28;20440;-78
2022/12/28 01:30:14;;;;;;;13.53;9.20;;;;;;;-141.28;100.00;49278.31;5057545;28;20517;-76
2022/12/28 01:32:42;;;;;;;16.10;10.13;;;;;;;-141.28;100.00;49305.78;5062360;28;20450;-76
2022/12/28 01:35:11;;;;;;;14.60;9.60;;;;;;;-141.28;100.00;49341.13;5059609;28;20478;-76
2022/12/28 01:37:40;;;;;;;14.70;10.50;;;;;;;-141.28;100.00;49356.81;5071410;28;20439;-77
2022/12/28 01:40:09;;;;;;;17.13;10.90;;;;;;;-141.28;100.00;49325.41;5055315;28;20484;-76
2022/12/28 01:42:38;;;;;;;15.03;10.43;;;;;;;-141.28;100.00;49398.03;5072058;28;20445;-76
2022/12/28 01:45:18;;;;;;;14.83;10.73;;;;;;;-141.28;100.00;49423.53;5057643;28;20492;-76
2022/12/28 01:47:46;;;;;;;19.23;10.93;;;;;;;-141.28;100.00;49417.63;5053622;28;20463;-78
2022/12/28 01:50:17;;;;;;;17.83;10.90;;;;;;;-141.28;100.00;49447.06;5052655;28;20442;-77
2022/12/28 01:52:50;;;;;;;16.23;11.23;;;;;;;-141.28;100.00;49451.00;5052279;28;20443;-76
2022/12/28 01:55:22;;;;;;;15.67;10.93;;;;;;;-141.28;100.00;49425.50;5039878;28;20435;-75
2022/12/28 01:57:52;;;;;;;17.40;11.03;;;;;;;-141.28;100.00;49435.31;5051942;28;20942;-76
2022/12/28 02:00:20;;;;;;;16.53;11.40;;;;;;;-141.28;100.00;49445.13;5060135;28;20447;-79
2022/12/28 02:02:52;;;;;;;17.83;11.83;;;;;;;-141.28;100.00;49431.38;5056667;28;20553;-77
2022/12/28 02:05:21;;;;;;;18.70;12.10;;;;;;;-141.28;100.00;49431.38;5061202;28;20478;-76
2022/12/28 02:07:54;;;;;;;16.63;11.40;;;;;;;-141.28;100.00;49419.59;5055448;28;20463;-75
2022/12/28 02:10:23;;;;;;;17.43;11.80;;;;;;;-141.28;100.00;49411.75;5051980;28;20479;-80
2022/12/28 02:12:51;;;;;;;17.70;12.07;;;;;;;-141.28;100.00;49427.44;5051919;28;20446;-75
2022/12/28 02:15:18;;;;;;;20.43;11.73;;;;;;;-141.28;100.00;49435.31;5046154;28;20451;-76
2022/12/28 02:17:45;;;;;;;19.43;11.20;;;;;;;-141.28;100.00;49419.59;5034086;28;21017;-76
2022/12/28 02:20:13;;;;;;;18.83;12.10;;;;;;;-141.28;100.00;49458.84;5040319;28;20463;-75
2022/12/28 02:23:14;;;;;;;17.67;12.07;;;;;;;-141.28;100.00;49419.59;5052878;28;20439;-77
2022/12/28 02:26:13;;;;;;;20.67;12.37;;;;;;;-141.28;100.00;49345.03;5040087;28;20479;-76
2022/12/28 02:29:05;;;;;;;18.63;11.87;;;;;;;-141.28;100.00;49345.03;5043413;28;20447;-78
2022/12/28 02:31:43;;;;;;;19.97;11.90;;;;;;;-141.28;100.00;49290.09;5038802;28;20523;-76
2022/12/28 02:34:17;;;;;;;19.30;10.60;;;;;;;-141.28;100.00;49301.88;5044317;28;20467;-75
2022/12/28 02:36:50;;;;;;;18.57;11.57;;;;;;;-141.28;100.00;49333.25;5046301;28;20458;-78
2022/12/28 02:39:23;;;;;;;16.70;10.93;;;;;;;-141.28;100.00;49356.81;5071074;28;20526;-79
2022/12/28 02:41:51;;;;;;;17.53;11.03;;;;;;;-141.28;100.00;49341.13;5071676;28;20450;-75
2022/12/28 02:52:51;;;;;;;21.30;12.53;;;;;;;-141.28;100.00;49341.13;5061114;28;20445;-79
2022/12/28 02:58:58;;;;;;;20.47;12.47;;;;;;;-141.28;100.00;49319.53;5072121;28;20565;-74
2022/12/28 03:01:43;;;;;;;20.63;12.97;;;;;;;-141.28;100.00;49268.50;5073184;28;20458;-75
2022/12/28 03:04:18;;;;;;;20.40;12.00;;;;;;;-141.28;100.00;49280.28;5076123;28;20960;-76
2022/12/28 03:09:55;;;;;;;17.67;11.60;;;;;;;-141.28;100.00;49278.31;5058818;28;21006;-74
2022/12/28 03:12:29;;;;;;;17.17;10.90;;;;;;;-141.28;100.00;49286.16;5070994;28;20449;-75
2022/12/28 03:15:02;;;;;;;18.03;11.60;;;;;;;-141.28;100.00;49290.09;5047330;28;20438;-77
2022/12/28 03:31:31;;;;;;;29.47;15.73;;;;;;;-141.28;100.00;49254.78;5049605;28;20417;-74
2022/12/28 03:34:06;;;;;;;25.80;15.70;;;;;;;-141.28;100.00;49225.34;5069678;28;20529;-76
2022/12/28 03:36:43;;;;;;;28.63;16.07;;;;;;;-141.28;100.00;49243.00;5070233;28;20442;-76
2022/12/28 03:39:23;;;;;;;27.53;15.53;;;;;;;-141.28;100.00;49282.25;5069437;28;20869;-76
2022/12/28 03:44:42;;;;;;;27.23;15.87;;;;;;;-141.28;100.00;49337.19;5076304;28;20430;-75
2022/12/28 03:47:13;;;;;;;22.50;13.17;;;;;;;-141.28;100.00;49368.59;5079318;28;20474;-76
2022/12/28 03:49:41;;;;;;;20.93;13.10;;;;;;;-141.28;100.00;49398.03;5080608;28;20462;-76
2022/12/28 03:52:11;;;;;;;19.83;12.40;;;;;;;-141.28;100.00;49451.00;5055461;28;20455;-74
2022/12/28 03:54:38;;;;;;;19.33;12.00;;;;;;;-141.28;100.00;49484.34;5082248;28;20448;-76
2022/12/28 03:57:04;;;;;;;17.30;11.13;;;;;;;-141.28;100.00;49484.34;5076155;28;20426;-76
2022/12/28 03:59:33;;;;;;;18.27;11.53;;;;;;;-141.28;100.00;49517.72;5077235;28;20447;-74
2022/12/28 04:02:00;;;;;;;16.93;10.00;;;;;;;-141.28;100.00;49527.53;5093198;28;20442;-73
2022/12/28 04:04:27;;;;;;;13.67;9.03;;;;;;;-141.28;100.00;49558.94;5065590;28;20502;-76
2022/12/28 04:06:55;;;;;;;13.50;8.13;;;;;;;-141.28;100.00;49584.44;5058468;28;20494;-78
2022/12/28 04:09:22;;;;;;;13.87;8.17;;;;;;;-141.28;100.00;49596.22;5073859;28;21004;-75
2022/12/28 04:11:50;;;;;;;13.27;8.47;;;;;;;-141.28;100.00;49629.56;5072692;28;20448;-76
2022/12/28 04:14:18;;;;;;;13.10;7.90;;;;;;;-141.28;100.00;49623.69;5055822;28;20867;-79
2022/12/28 04:16:45;;;;;;;10.70;7.43;;;;;;;-141.28;100.00;49633.50;5054047;28;20451;-75
2022/12/28 04:19:13;;;;;;;14.43;8.10;;;;;;;-141.28;100.00;49666.84;5053779;28;20447;-77
2022/12/28 04:21:40;;;;;;;12.77;7.63;;;;;;;-141.28;100.00;49655.09;5054310;28;20444;-75
2022/12/28 04:24:08;;;;;;;11.73;7.47;;;;;;;-141.28;100.00;49651.16;5042809;28;20502;-78
2022/12/28 04:26:35;;;;;;;13.93;6.97;;;;;;;-141.28;100.00;49643.31;5053673;28;21063;-77
2022/12/28 04:29:01;;;;;;;11.33;6.80;;;;;;;-141.28;100.00;49690.41;5056058;28;20447;-76
2022/12/28 04:31:29;;;;;;;13.10;7.10;;;;;;;-141.28;100.00;49692.38;5063605;28;20518;-76
2022/12/28 04:33:59;;;;;;;10.47;6.93;;;;;;;-141.28;100.00;49678.63;5053176;28;20558;-76
2022/12/28 04:36:26;;;;;;;10.13;6.73;;;;;;;-141.28;100.00;49672.75;5053868;28;20530;-77
2022/12/28 04:38:54;;;;;;;11.60;6.90;;;;;;;-141.28;100.00;49678.63;5070659;28;20438;-75
2022/12/28 04:41:24;;;;;;;11.07;6.63;;;;;;;-141.28;100.00;49662.94;5061004;28;20543;-75
2022/12/28 04:43:51;;;;;;;10.57;6.23;;;;;;;-141.28;100.00;49668.81;5053582;28;20789;-74
2022/12/28 04:46:18;;;;;;;9.17;5.63;;;;;;;-141.28;100.00;49678.63;5053830;28;20517;-76
2022/12/28 04:48:45;;;;;;;8.57;5.90;;;;;;;-141.28;100.00;49682.56;5053783;28;20866;-75
2022/12/28 04:51:21;;;;;;;9.10;6.37;;;;;;;-141.28;100.00;49666.84;5054307;28;20448;-75
2022/12/28 04:53:48;;;;;;;9.80;5.83;;;;;;;-141.28;100.00;49670.78;5040914;28;21012;-77
2022/12/28 04:56:17;;;;;;;10.00;5.53;;;;;;;-141.28;100.00;49682.56;5053390;28;20504;-76
2022/12/28 04:58:46;;;;;;;8.97;5.50;;;;;;;-141.28;100.00;49678.63;5053921;28;20941;-75
2022/12/28 05:01:15;;;;;;;10.00;5.67;;;;;;;-141.28;100.00;49660.97;5054252;28;20532;-77
2022/12/28 05:03:44;;;;;;;9.63;5.93;;;;;;;-141.28;100.00;49678.63;5054452;28;20875;-75
2022/12/28 05:06:13;;;;;;;9.03;6.07;;;;;;;-141.28;100.00;49647.22;5054952;28;21204;-74
2022/12/28 05:08:41;;;;;;;8.63;5.73;;;;;;;-141.28;100.00;49678.63;5063754;28;20436;-74
2022/12/28 05:11:11;;;;;;;8.40;5.97;;;;;;;-141.28;100.00;49611.91;5066158;28;20439;-74
2022/12/28 05:13:38;;;;;;;11.60;6.07;;;;;;;-141.28;100.00;49627.59;5065311;28;20451;-75
2022/12/28 05:16:09;;;;;;;10.03;5.87;;;;;;;-141.28;100.00;49627.59;5065214;28;20452;-74
2022/12/28 05:18:37;;;;;;;11.93;6.00;;;;;;;-141.28;100.00;49627.59;5064221;28;20451;-74
2022/12/28 05:21:06;;;;;;;9.60;6.10;;;;;;;-141.28;100.00;49582.47;5062666;28;20447;-75
2022/12/28 05:23:36;;;;;;;14.67;6.10;;;;;;;-141.28;100.00;49596.22;5047320;28;20959;-78
2022/12/28 05:26:03;;;;;;;14.90;8.33;;;;;;;-141.28;100.00;49621.72;5065928;28;20930;-76
2022/12/28 05:28:31;;;;;;;22.40;13.13;;;;;;;-141.28;100.00;49588.34;5053508;28;20543;-78
2022/12/28 05:31:00;;;;;;;24.87;13.57;;;;;;;-141.28;100.00;49529.50;5068698;28;20473;-78
2022/12/28 05:33:29;;;;;;;23.80;14.20;;;;;;;-141.28;100.00;49466.69;5063619;28;21024;-80
2022/12/28 05:35:56;;;;;;;26.80;15.07;;;;;;;-141.28;100.00;49466.69;5041060;28;20482;-75
2022/12/28 05:38:24;;;;;;;25.50;14.40;;;;;;;-141.28;100.00;49380.34;5056589;28;20874;-75
2022/12/28 05:40:52;;;;;;;28.73;15.13;;;;;;;-141.28;100.00;49372.50;5074649;28;20481;-77
2022/12/28 05:43:19;;;;;;;28.93;15.77;;;;;;;-141.28;100.00;49348.97;5055068;28;20462;-78
2022/12/28 05:45:47;;;;;;;31.47;15.03;;;;;;;-141.28;100.00;49341.13;5052557;28;20439;-76
2022/12/28 05:48:17;;;;;;;23.17;14.57;;;;;;;-141.28;100.00;49345.03;5051827;28;21024;-74
2022/12/28 05:50:51;;;;;;;28.73;15.20;;;;;;;-141.28;100.00;49333.25;5057541;28;20435;-76
2022/12/28 05:53:27;;;;;;;30.77;18.27;;;;;;;-141.28;100.00;49329.34;5052062;28;20446;-76
2022/12/28 05:56:07;;;;;;;26.83;16.30;;;;;;;-141.28;100.00;49313.66;5076905;28;20509;-77
2022/12/28 05:58:39;;;;;;;33.47;16.80;;;;;;;-141.28;100.00;49313.66;5061715;28;20434;-78
2022/12/28 06:01:08;;;;;;;26.10;15.40;;;;;;;-141.28;100.00;49309.72;5058404;28;20440;-75
2022/12/28 06:03:37;;;;;;;38.20;20.57;;;;;;;-141.28;100.00;49309.72;5061916;28;20446;-77
2022/12/28 06:06:10;;;;;;;39.53;21.23;;;;;;;-141.28;100.00;49341.13;5067988;28;20933;-77
2022/12/28 06:08:38;;;;;;;36.33;19.60;;;;;;;-141.28;100.00;49348.97;5070755;28;20488;-75
2022/12/28 06:11:06;;;;;;;31.53;17.57;;;;;;;-141.28;100.00;49380.34;5071454;28;20468;-79
2022/12/28 06:13:34;;;;;;;29.53;18.20;;;;;;;-141.28;100.00;49401.94;5071993;28;20457;-79
2022/12/28 06:16:06;;;;;;;33.13;16.67;;;;;;;-141.28;100.00;49415.69;5071487;28;20443;-76
2022/12/28 06:18:33;;;;;;;31.50;17.10;;;;;;;-141.28;100.00;49419.59;5072255;28;20451;-77
2022/12/28 06:21:06;;;;;;;37.13;17.77;;;;;;;-141.28;100.00;49462.78;5058685;28;20443;-76
2022/12/28 06:23:33;;;;;;;33.33;19.47;;;;;;;-141.28;100.00;49462.78;5056129;28;20452;-79
2022/12/28 06:26:02;;;;;;;35.00;21.33;;;;;;;-141.28;100.00;49482.41;5050820;28;20444;-80
2022/12/28 06:28:31;;;;;;;36.33;22.30;;;;;;;-141.28;100.00;49466.69;5053158;28;20485;-77
2022/12/28 06:31:05;;;;;;;50.43;24.90;;;;;;;-141.28;100.00;49505.94;5056513;28;20436;-74
2022/12/28 06:33:33;;;;;;;37.00;21.43;;;;;;;-141.28;100.00;49480.44;5063800;28;20458;-74
2022/12/28 06:36:02;;;;;;;47.23;24.93;;;;;;;-141.28;100.00;49547.16;5077951;28;20442;-76
2022/12/28 06:38:33;;;;;;;48.80;28.63;;;;;;;-141.28;100.00;49523.59;5075252;28;20473;-75
2022/12/28 06:41:03;;;;;;;60.80;33.47;;;;;;;-141.28;100.00;49564.81;5075633;28;20431;-76
2022/12/28 06:43:32;;;;;;;35.13;20.43;;;;;;;-141.28;100.00;49564.81;5071596;28;20507;-75
2022/12/28 06:46:02;;;;;;;36.07;19.63;;;;;;;-141.28;100.00;49580.50;5070985;28;20482;-77
2022/12/28 06:48:30;;;;;;;24.07;14.47;;;;;;;-141.28;100.00;49586.41;5071077;28;20548;-76
2022/12/28 06:50:58;;;;;;;34.70;16.23;;;;;;;-141.28;100.00;49600.13;5057211;28;20500;-78
2022/12/28 06:53:27;;;;;;;27.37;15.73;;;;;;;-141.28;100.00;49598.16;5070465;28;20842;-76
2022/12/28 06:55:56;;;;;;;29.77;16.33;;;;;;;-141.28;100.00;49621.72;5053332;28;20440;-77
2022/12/28 06:58:26;;;;;;;27.87;15.87;;;;;;;-141.28;100.00;49611.91;5051390;28;20443;-77
2022/12/28 07:00:54;;;;;;;24.10;14.53;;;;;;;-141.28;100.00;49639.38;5068467;28;20442;-77
2022/12/28 07:03:22;;;;;;;19.17;13.07;;;;;;;-141.28;100.00;49664.91;5070443;28;20530;-76
2022/12/28 07:05:49;;;;;;;23.33;13.53;;;;;;;-141.28;100.00;49702.19;5056961;28;20460;-79
2022/12/28 07:08:17;;;;;;;22.53;13.43;;;;;;;-141.28;100.00;49702.19;5070577;28;20486;-76
2022/12/28 07:10:44;;;;;;;21.50;12.73;;;;;;;-141.28;100.00;49712.00;5069755;28;20886;-75
2022/12/28 07:13:13;;;;;;;23.27;13.30;;;;;;;-141.28;100.00;49715.91;5069863;28;20469;-76
2022/12/28 07:15:40;;;;;;;33.17;13.73;;;;;;;-141.28;100.00;49737.50;5070080;28;20497;-78
2022/12/28 07:18:08;;;;;;;44.83;19.17;;;;;;;-141.28;100.00;49735.53;5070163;28;20521;-75
2022/12/28 07:20:36;;;;;;;40.77;18.80;;;;;;;-141.28;100.00;49733.56;5050529;28;20451;-79
2022/12/28 07:23:03;;;;;;;42.23;17.87;;;;;;;-141.28;100.00;49792.44;5065064;28;20851;-74
2022/12/28 07:25:29;;;;;;;36.47;16.53;;;;;;;-141.28;100.00;49792.44;5069187;28;20500;-76
2022/12/28 07:27:58;;;;;;;33.67;17.07;;;;;;;-141.28;100.00;49808.16;5049409;28;20473;-76
2022/12/28 07:30:27;;;;;;;37.53;16.87;;;;;;;-141.28;100.00;49806.19;5059991;28;20435;-77
2022/12/28 07:32:54;;;;;;;25.23;14.63;;;;;;;-141.28;100.00;49816.00;5062413;28;20446;-76
2022/12/28 07:35:22;;;;;;;30.43;14.37;;;;;;;-141.28;100.00;49855.25;5064377;28;20459;-76
2022/12/28 07:37:50;;;;;;;34.10;14.37;;;;;;;-141.28;100.00;49863.09;5054720;28;20436;-75
2022/12/28 07:40:17;;;;;;;28.37;14.57;;;;;;;-141.28;100.00;49914.13;5054504;28;20473;-78
2022/12/28 07:42:44;;;;;;;30.00;14.40;;;;;;;-141.28;100.00;49945.53;5068044;28;20486;-75
2022/12/28 07:45:12;;;;;;;33.10;16.90;;;;;;;-141.28;100.00;50141.78;5062319;28;20524;-76
2022/12/28 07:47:41;;;;;;;28.80;15.03;;;;;;;-141.28;100.00;50502.94;5061483;28;20490;-76
2022/12/28 07:50:09;;;;;;;30.03;13.37;;;;;;;-141.28;100.00;50506.88;5048189;28;20461;-78
2022/12/28 07:52:37;;;;;;;21.63;13.60;;;;;;;-141.28;100.00;50455.84;5072986;28;20957;-79
2022/12/28 07:55:04;;;;;;;25.73;12.50;;;;;;;-141.28;100.00;50446.03;5073657;28;20448;-78
2022/12/28 07:57:33;;;;;;;21.60;12.27;;;;;;;-141.28;100.00;50432.28;5073743;28;20446;-78
2022/12/28 08:00:00;;;;;;;23.03;11.70;;;;;;;-141.28;100.00;50442.09;5074195;28;20531;-76
2022/12/28 08:02:29;;;;;;;22.77;11.17;;;;;;;-141.28;100.00;50373.38;5065345;28;20448;-77
2022/12/28 08:04:57;;;;;;;20.83;10.07;;;;;;;-141.28;100.00;50357.69;5069374;28;20446;-76
2022/12/28 08:07:25;;;;;;;21.93;12.23;;;;;;;-141.28;100.00;50310.59;5073751;28;20489;-76
2022/12/28 08:09:52;;;;;;;18.10;11.57;;;;;;;-141.28;100.00;50245.81;5073752;28;20466;-80
2022/12/28 08:12:20;;;;;;;21.20;11.37;;;;;;;-141.28;100.00;50184.97;5073871;28;20451;-76
2022/12/28 08:14:47;;;;;;;17.30;10.37;;;;;;;-141.28;100.00;50126.09;5072828;28;20937;-77
2022/12/28 08:17:14;;;;;;;18.60;11.13;;;;;;;-141.28;100.00;50077.03;5073605;28;20446;-76
2022/12/28 08:19:42;;;;;;;20.47;12.00;;;;;;;-141.28;100.00;50008.34;5073254;28;20449;-78
2022/12/28 08:22:12;;;;;;;19.57;11.80;;;;;;;-141.28;100.00;49945.53;5073747;28;20450;-77
2022/12/28 08:24:39;;;;;;;20.87;13.20;;;;;;;-141.28;100.00;49949.44;5049228;28;20525;-77
2022/12/28 08:27:06;;;;;;;25.00;13.23;;;;;;;-141.28;100.00;49916.09;5073802;28;20470;-75
2022/12/28 08:29:34;;;;;;;23.20;13.80;;;;;;;-141.28;100.00;49847.41;5070271;28;20929;-79
2022/12/28 08:32:01;;;;;;;23.77;14.63;;;;;;;-141.28;100.00;49841.50;5063102;28;20471;-75
2022/12/28 08:34:29;;;;;;;30.53;15.03;;;;;;;-141.28;100.00;49817.97;5069540;28;20462;-76
2022/12/28 08:36:57;;;;;;;26.50;15.97;;;;;;;-141.28;100.00;49796.38;5072968;28;20434;-79
2022/12/28 08:39:25;;;;;;;29.37;16.70;;;;;;;-141.28;100.00;49764.97;5059506;28;20447;-78
2022/12/28 08:41:52;;;;;;;33.80;18.20;;;;;;;-141.28;100.00;49725.72;5073267;28;20446;-75
2022/12/28 08:44:19;;;;;;;44.73;22.83;;;;;;;-141.28;100.00;49690.41;5072218;28;20439;-79
2022/12/28 08:46:46;;;;;;;32.60;19.03;;;;;;;-141.28;100.00;49651.16;5073665;28;20446;-76
2022/12/28 08:49:15;;;;;;;29.40;16.57;;;;;;;-141.28;100.00;49645.28;5071983;28;20482;-75
2022/12/28 08:51:44;;;;;;;34.63;17.30;;;;;;;-141.28;100.00;49615.84;5040870;28;20451;-77
2022/12/28 08:54:12;;;;;;;31.73;18.93;;;;;;;-141.28;100.00;49594.25;5068056;28;20454;-76
2022/12/28 08:56:45;;;;;;;33.87;19.83;;;;;;;-141.28;100.00;49604.06;5073488;28;20496;-77
2022/12/28 08:59:15;;;;;;;31.87;18.63;;;;;;;-141.28;100.00;49604.06;5072428;28;20522;-76
2022/12/28 09:01:42;;;;;;;33.27;18.33;;;;;;;-141.28;100.00;49580.50;5073077;28;20525;-77
2022/12/28 09:04:13;;;;;;;32.93;17.77;;;;;;;-141.28;100.00;49592.28;5059140;28;20447;-78
2022/12/28 09:06:40;;;;;;;35.23;19.60;;;;;;;-141.28;100.00;49584.44;5063052;28;21000;-76
2022/12/28 09:09:10;;;;;;;31.13;17.23;;;;;;;-141.28;100.00;49562.84;5052887;28;20555;-74
2022/12/28 09:11:39;;;;;;;33.30;17.60;;;;;;;-141.28;100.00;49498.09;5051814;28;20443;-75
2022/12/28 09:14:09;;;;;;;32.27;18.00;;;;;;;-141.28;100.00;49505.94;5060566;28;20948;-77
2022/12/28 09:16:40;;;;;;;49.10;19.50;;;;;;;-141.28;100.00;49513.78;5061262;28;20945;-76
2022/12/28 09:19:09;;;;;;;40.17;19.97;;;;;;;-141.28;100.00;49541.25;5062303;28;20447;-76
2022/12/28 09:21:38;;;;;;;34.30;18.83;;;;;;;-141.28;100.00;49529.50;5061399;28;20443;-78
2022/12/28 09:24:06;;;;;;;34.07;17.30;;;;;;;-141.28;100.00;49525.56;5055523;28;20958;-76
2022/12/28 09:26:37;;;;;;;28.53;15.80;;;;;;;-141.28;100.00;49533.41;5072853;28;20543;-76
2022/12/28 09:29:09;;;;;;;25.20;14.73;;;;;;;-141.28;100.00;49517.72;5053520;28;20889;-79
2022/12/28 09:31:37;;;;;;;28.23;14.37;;;;;;;-141.28;100.00;49517.72;5052449;28;20455;-76
2022/12/28 09:34:04;;;;;;;27.37;15.17;;;;;;;-141.28;100.00;49515.75;5059379;28;20458;-76
2022/12/28 09:36:35;;;;;;;25.47;13.43;;;;;;;-141.28;100.00;49541.25;5071467;28;20447;-75
2022/12/28 09:39:05;;;;;;;27.00;12.90;;;;;;;-141.28;100.00;49604.06;5072029;28;20447;-76
2022/12/28 09:41:35;;;;;;;23.90;11.07;;;;;;;-141.28;100.00;49666.84;5070772;28;20438;-79
2022/12/28 09:44:27;;;;;;;19.17;9.33;;;;;;;-141.28;100.00;49780.69;5071789;28;20435;-80
2022/12/28 09:47:00;;;;;;;18.50;9.47;;;;;;;-141.28;100.00;49819.94;5058058;28;20443;-79
2022/12/28 09:49:35;;;;;;;17.03;10.50;;;;;;;-141.28;100.00;49890.56;5070039;28;20485;-80
2022/12/28 09:52:21;;;;;;;16.43;9.63;;;;;;;-141.28;100.00;49949.44;5071626;28;20454;-76
2022/12/28 09:54:48;;;;;;;14.10;8.83;;;;;;;-141.28;100.00;49945.53;5071555;28;20508;-76
2022/12/28 09:57:18;;;;;;;17.07;9.50;;;;;;;-141.28;100.00;49974.97;5071472;28;20952;-77
2022/12/28 09:59:49;;;;;;;14.63;8.90;;;;;;;-141.28;100.00;50004.41;5065625;28;20439;-80
2022/12/28 10:02:23;;;;;;;16.27;8.97;;;;;;;-141.28;100.00;50041.69;5064540;28;20443;-75
2022/12/28 10:04:51;;;;;;;16.63;9.27;;;;;;;-141.28;100.00;50027.97;5047044;28;21002;-75
2022/12/28 10:07:18;;;;;;;17.43;9.37;;;;;;;-141.28;100.00;50065.25;5069994;28;20449;-79
2022/12/28 10:09:48;;;;;;;17.00;9.23;;;;;;;-141.28;100.00;50077.03;5063022;28;20474;-75
2022/12/28 10:12:20;;;;;;;15.97;8.97;;;;;;;-141.28;100.00;50012.25;5065211;28;21026;-79
2022/12/28 10:14:49;;;;;;;19.27;10.33;;;;;;;-141.28;100.00;50067.22;5070850;28;20816;-76
2022/12/28 10:17:21;;;;;;;20.80;10.50;;;;;;;-141.28;100.00;50049.53;5057191;28;20992;-75
2022/12/28 10:19:48;;;;;;;17.60;9.90;;;;;;;-141.28;100.00;50059.34;5071863;28;20446;-75
2022/12/28 10:22:19;;;;;;;17.90;9.97;;;;;;;-141.28;100.00;50065.25;5069710;28;20450;-78
2022/12/28 10:24:47;;;;;;;24.83;14.73;;;;;;;-141.28;100.00;50059.34;5039629;28;20462;-76
2022/12/28 10:27:24;;;;;;;19.60;11.00;;;;;;;-141.28;100.00;50092.72;5065699;28;20466;-76
2022/12/28 10:29:54;;;;;;;17.20;10.40;;;;;;;-141.28;100.00;50110.38;5071050;28;20920;-77
2022/12/28 10:32:22;;;;;;;14.47;9.17;;;;;;;-141.28;100.00;50122.16;5060217;28;20474;-78
2022/12/28 10:34:57;;;;;;;14.03;10.00;;;;;;;-141.28;100.00;50153.56;5071095;28;20596;-76
2022/12/28 10:37:26;;;;;;;13.60;9.20;;;;;;;-141.28;100.00;50216.38;5057669;28;20443;-79
2022/12/28 10:39:56;;;;;;;15.60;9.80;;;;;;;-141.28;100.00;50212.44;5061791;28;20968;-78
2022/12/28 10:42:27;;;;;;;15.30;9.00;;;;;;;-141.28;100.00;50265.44;5052398;28;20784;-78
2022/12/28 10:45:02;;;;;;;16.57;9.30;;;;;;;-141.28;100.00;50353.75;5071427;28;20536;-79
2022/12/28 10:47:33;;;;;;;18.13;9.93;;;;;;;-141.28;100.00;50361.63;5051228;28;21118;-75
2022/12/28 10:50:00;;;;;;;15.03;9.80;;;;;;;-141.28;100.00;50438.16;5066588;28;20443;-78
2022/12/28 10:52:28;;;;;;;17.77;10.43;;;;;;;-141.28;100.00;50530.41;5061845;28;20435;-76
2022/12/28 10:54:55;;;;;;;15.33;9.23;;;;;;;-141.28;100.00;50538.28;5074087;28;20800;-76
2022/12/28 10:57:30;;;;;;;16.03;9.97;;;;;;;-141.28;100.00;50565.75;5077708;28;20224;-77
2022/12/28 11:00:19;;;;;;;13.13;9.63;;;;;;;-141.28;100.00;50628.56;5075056;28;20445;-78
2022/12/28 11:02:47;;;;;;;13.27;8.83;;;;;;;-141.28;100.00;50675.69;5074612;28;20460;-75
2022/12/28 11:05:20;;;;;;;18.97;9.93;;;;;;;-141.28;100.00;50712.97;5062744;28;20505;-75
2022/12/28 11:07:48;;;;;;;17.00;9.57;;;;;;;-141.28;100.00;50746.34;5042442;28;20825;-75
2022/12/28 11:10:27;;;;;;;17.13;9.90;;;;;;;-141.28;100.00;50852.34;5055784;28;20467;-76
2022/12/28 11:12:57;;;;;;;18.27;9.13;;;;;;;-141.28;100.00;50836.66;5076550;28;20495;-77
2022/12/28 11:15:29;;;;;;;14.77;9.47;;;;;;;-141.28;100.00;50897.50;5076765;28;20447;-75
2022/12/28 11:17:58;;;;;;;15.13;9.83;;;;;;;-141.28;100.00;50836.66;5077608;28;20456;-76
2022/12/28 11:20:33;;;;;;;15.00;10.13;;;;;;;-141.28;100.00;50948.53;5073761;28;20444;-74
2022/12/28 11:23:02;;;;;;;16.87;9.87;;;;;;;-141.28;100.00;50972.09;5060764;28;20505;-76
2022/12/28 11:25:33;;;;;;;16.10;10.07;;;;;;;-141.28;100.00;51011.38;5048703;28;20493;-76
2022/12/28 11:28:05;;;;;;;14.77;9.57;;;;;;;-141.28;100.00;50981.91;5043182;28;20902;-76
2022/12/28 11:30:33;;;;;;;15.80;10.53;;;;;;;-141.28;100.00;50903.41;5068347;28;20443;-77
2022/12/28 11:33:08;;;;;;;15.23;9.63;;;;;;;-141.28;100.00;50875.91;5054020;28;20450;-78
2022/12/28 11:35:39;;;;;;;22.20;9.90;;;;;;;-141.28;100.00;50838.63;5055428;28;20439;-79
2022/12/28 11:38:11;;;;;;;14.27;9.20;;;;;;;-141.28;100.00;50793.47;5055823;28;20446;-79
2022/12/28 11:40:51;;;;;;;21.73;10.03;;;;;;;-141.28;100.00;50805.25;5054991;28;20926;-75